KOTH

Southwest Oregon Regional Airport

North Bend, Oregon, USA
METAR KOTH 232256Z 15012KT 10SM RA FEW033 OVC060 10/09 A2996 RMK AO2 SLP144 P0002 T01000089
Observed Flight Rules
Jan-23 @ 22:56 UTC (37 minutes ago) Visual Flight Rules
Wind Visibility Clouds Conditions
150° at 12 knots 10 miles
  • Few at 3,300' AGL
  • Overcast at 6,000' AGL
  • Rain
Temperatures Readings Precipitation
Current 10°C / 50°F
Dewpoint 9°C / 48°F
Humidity 94%
Altimeter 29.96" Hg
Pressure 1014.4 hPa
Elevation 4
Current Rain 0.02
METAR KOTH 232256Z 15012KT 10SM RA FEW033 OVC060 10/09 A2996 RMK AO2 SLP144 P0002 T01000089
Observed Flight Rules
Jan-23 @ 22:56 UTC
(37 minutes ago)
VFR
Wind Visibility
150° at 12 knots 10 miles
Clouds
  • Few at 3,300' AGL
  • Overcast at 6,000' AGL
Conditions
  • Rain
Temperature Dewpoint
10°C / 50°F 9°C / 48°F
Humidity Altimeter Pressure
94% 29.96" Hg 1014.4 hPa
Current Rain
0.02